createdAt,value
2023-04-01T00:00:54.836Z,38.65
2023-04-01T00:03:23.888Z,39.90
2023-04-01T00:05:52.176Z,41.28
2023-04-01T00:08:19.944Z,43.90
2023-04-01T00:10:48.612Z,40.88
2023-04-01T00:13:17.164Z,45.88
2023-04-01T00:15:46.085Z,43.97
2023-04-01T00:18:36.309Z,41.00
2023-04-01T00:21:04.540Z,47.08
2023-04-01T00:23:32.336Z,41.47
2023-04-01T00:26:02.099Z,47.15
2023-04-01T00:28:30.503Z,49.90
2023-04-01T00:30:59.178Z,43.65
2023-04-01T00:33:26.915Z,47.95
2023-04-01T00:35:55.680Z,47.85
2023-04-01T00:38:24.484Z,46.97
2023-04-01T00:40:59.671Z,40.72
2023-04-01T00:43:27.312Z,45.95
2023-04-01T00:45:55.616Z,40.03
2023-04-01T00:48:31.962Z,41.28
2023-04-01T00:51:04.764Z,44.22
2023-04-01T00:53:34.557Z,48.55
2023-04-01T00:56:07.328Z,45.78
2023-04-01T00:58:40.360Z,47.00
2023-04-01T01:01:10.038Z,43.28
2023-04-01T01:03:37.927Z,50.78
2023-04-01T01:06:43.260Z,46.05
2023-04-01T01:09:47.397Z,43.67
2023-04-01T01:12:21.152Z,48.38
2023-04-01T01:15:10.524Z,55.03
2023-04-01T01:17:49.511Z,44.67
2023-04-01T01:20:26.125Z,50.80
2023-04-01T01:23:16.991Z,44.13
2023-04-01T01:26:23.819Z,52.05
2023-04-01T01:29:10.531Z,47.33
2023-04-01T01:31:44.482Z,53.22
2023-04-01T01:34:41.482Z,50.25
2023-04-01T01:37:20.769Z,54.95
2023-04-01T01:39:54.577Z,52.80
2023-04-01T01:42:24.219Z,46.22
2023-04-01T01:44:53.828Z,49.35
2023-04-01T01:47:23.943Z,53.05
2023-04-01T01:49:53.369Z,48.78
2023-04-01T01:52:23.229Z,53.00
2023-04-01T01:54:53.811Z,56.45
2023-04-01T01:57:32.592Z,47.95
2023-04-01T02:00:13.934Z,53.58
2023-04-01T02:02:46.180Z,57.95
2023-04-01T02:05:21.633Z,47.75
2023-04-01T02:07:56.954Z,51.58
2023-04-01T02:10:26.759Z,52.58
2023-04-01T02:12:59.121Z,50.72
2023-04-01T02:15:32.083Z,49.88
2023-04-01T02:18:00.636Z,40.92
2023-04-01T02:20:29.857Z,52.08
2023-04-01T02:23:01.124Z,54.40
2023-04-01T02:25:32.772Z,53.60
2023-04-01T02:28:01.480Z,54.72
2023-04-01T02:30:31.026Z,57.47
2023-04-01T02:32:59.235Z,53.25
2023-04-01T02:35:28.314Z,59.60
2023-04-01T02:37:56.330Z,57.88
2023-04-01T02:40:24.926Z,55.95
2023-04-01T02:42:53.289Z,57.15
2023-04-01T02:45:21.727Z,62.97
2023-04-01T02:47:49.465Z,66.00
2023-04-01T02:50:18.129Z,71.10
2023-04-01T02:52:46.012Z,67.05
2023-04-01T02:55:14.890Z,61.78
2023-04-01T02:57:42.385Z,61.42
2023-04-01T03:00:12.867Z,60.53
2023-04-01T03:02:41.157Z,67.53
2023-04-01T03:05:09.355Z,63.33
2023-04-01T03:07:37.105Z,64.47
2023-04-01T03:10:06.895Z,62.47
2023-04-01T03:12:35.393Z,66.85
2023-04-01T03:15:11.280Z,60.33
2023-04-01T03:17:40.990Z,66.20
2023-04-01T03:20:12.273Z,64.20
2023-04-01T03:22:42.807Z,62.13
2023-04-01T03:25:11.561Z,64.53
2023-04-01T03:27:39.716Z,59.63
2023-04-01T03:30:10.917Z,62.78
2023-04-01T03:32:47.536Z,56.05
2023-04-01T03:35:15.642Z,57.15
2023-04-01T03:37:44.128Z,61.70
2023-04-01T03:40:12.880Z,56.05
2023-04-01T03:42:40.705Z,58.30
2023-04-01T03:45:11.219Z,59.08
2023-04-01T03:47:40.043Z,57.75
2023-04-01T03:50:09.617Z,61.08
2023-04-01T03:52:37.182Z,64.97
2023-04-01T03:55:06.123Z,64.22
2023-04-01T03:57:33.884Z,65.68
2023-04-01T04:00:10.620Z,68.97
2023-04-01T04:02:41.581Z,69.25
2023-04-01T04:05:11.966Z,70.47
2023-04-01T04:07:39.810Z,74.25
2023-04-01T04:10:10.412Z,67.07
2023-04-01T04:12:38.117Z,67.95
2023-04-01T04:15:07.546Z,66.70
2023-04-01T04:17:36.497Z,64.50
2023-04-01T04:20:05.553Z,64.38
2023-04-01T04:22:33.023Z,57.92
2023-04-01T04:25:01.701Z,51.55
2023-04-01T04:27:31.246Z,52.17
2023-04-01T04:30:10.896Z,53.30
2023-04-01T04:32:39.026Z,50.45
2023-04-01T04:35:07.727Z,54.20
2023-04-01T04:37:36.276Z,51.00
2023-04-01T04:40:04.786Z,50.15
2023-04-01T04:42:33.415Z,46.60
2023-04-01T04:45:08.424Z,46.40
2023-04-01T04:47:38.180Z,46.42
2023-04-01T04:50:07.883Z,44.88
2023-04-01T04:52:38.186Z,48.85
2023-04-01T04:55:07.072Z,42.72
2023-04-01T04:57:35.114Z,44.03
2023-04-01T05:00:04.672Z,42.20
2023-04-01T05:02:51.301Z,46.55
2023-04-01T05:05:19.744Z,43.30
2023-04-01T05:07:47.613Z,41.75
2023-04-01T05:10:15.728Z,43.72
2023-04-01T05:12:43.300Z,44.00
2023-04-01T05:15:13.904Z,37.63
2023-04-01T05:17:42.128Z,41.50
2023-04-01T05:20:13.483Z,39.22
2023-04-01T05:22:42.001Z,41.38
2023-04-01T05:25:10.866Z,38.63
2023-04-01T05:27:38.550Z,36.42
2023-04-01T05:30:08.370Z,36.25
2023-04-01T05:32:48.223Z,36.92
2023-04-01T05:35:16.725Z,34.00
2023-04-01T05:37:44.324Z,36.50
2023-04-01T05:40:12.882Z,35.03
2023-04-01T05:42:40.611Z,37.40
2023-04-01T05:45:10.035Z,35.90
2023-04-01T05:47:56.276Z,32.65
2023-04-01T05:50:24.663Z,35.28
2023-04-01T05:52:52.465Z,36.38
2023-04-01T05:55:21.115Z,32.15
2023-04-01T05:57:51.874Z,31.48
2023-04-01T06:00:21.225Z,29.00
2023-04-01T06:02:50.155Z,25.15
2023-04-01T06:05:24.075Z,25.52
2023-04-01T06:07:59.839Z,23.02
2023-04-01T06:10:52.786Z,22.48
2023-04-01T06:13:33.081Z,22.30
2023-04-01T06:16:13.091Z,20.40
2023-04-01T06:19:00.783Z,23.48
2023-04-01T06:21:47.784Z,20.33
2023-04-01T06:27:15.054Z,20.60
2023-04-01T06:30:09.007Z,15.82
2023-04-01T06:35:30.530Z,17.10
2023-04-01T06:38:25.734Z,18.25
2023-04-01T06:41:20.026Z,15.55
2023-04-01T06:44:06.565Z,16.42
2023-04-01T06:47:32.717Z,18.50
2023-04-01T06:50:50.453Z,14.13
2023-04-01T06:54:04.933Z,10.40
2023-04-01T06:56:57.244Z,10.20
2023-04-01T06:59:34.254Z,11.25
2023-04-01T07:02:11.668Z,10.73
2023-04-01T07:04:44.206Z,10.75
2023-04-01T07:07:48.536Z,13.30
2023-04-01T07:10:23.976Z,12.50
2023-04-01T07:13:29.210Z,8.82
2023-04-01T07:16:18.991Z,10.80
2023-04-01T07:19:09.195Z,8.27
2023-04-01T07:21:58.862Z,8.65
2023-04-01T07:24:41.271Z,8.60
2023-04-01T07:27:12.888Z,7.43
2023-04-01T07:29:42.780Z,9.68
2023-04-01T07:32:35.933Z,9.23
2023-04-01T07:35:32.209Z,5.78
2023-04-01T07:38:18.693Z,7.80
2023-04-01T07:40:58.552Z,6.55
2023-04-01T07:43:57.214Z,6.88
2023-04-01T07:46:35.351Z,6.88
2023-04-01T07:51:53.956Z,10.13
2023-04-01T07:54:51.366Z,9.85
2023-04-01T07:57:51.880Z,10.65
2023-04-01T08:00:29.358Z,12.25
2023-04-01T08:03:27.889Z,15.82
2023-04-01T08:05:59.073Z,12.52
2023-04-01T08:08:56.758Z,12.13
2023-04-01T08:11:56.305Z,13.63
2023-04-01T08:14:45.825Z,11.35
2023-04-01T08:17:37.244Z,12.85
2023-04-01T08:20:44.393Z,17.33
2023-04-01T08:23:23.091Z,16.55
2023-04-01T08:25:59.754Z,14.25
2023-04-01T08:29:07.871Z,15.98
2023-04-01T08:32:01.244Z,15.70
2023-04-01T08:34:38.168Z,18.85
2023-04-01T08:37:12.513Z,14.75
2023-04-01T08:42:17.721Z,16.10
2023-04-01T08:45:14.640Z,17.60
2023-04-01T08:48:17.548Z,15.98
2023-04-01T08:50:51.756Z,20.45
2023-04-01T08:53:57.951Z,17.67
2023-04-01T08:56:42.612Z,21.90
2023-04-01T08:59:19.852Z,20.35
2023-04-01T09:02:20.231Z,22.00
2023-04-01T09:05:00.997Z,22.73
2023-04-01T09:07:53.069Z,21.63
2023-04-01T09:10:26.434Z,19.63
2023-04-01T09:13:01.312Z,20.35
2023-04-01T09:15:40.007Z,19.83
2023-04-01T09:18:17.660Z,14.88
2023-04-01T09:21:23.019Z,14.82
2023-04-01T09:24:09.751Z,13.00
2023-04-01T09:27:05.583Z,11.00
2023-04-01T09:30:04.840Z,10.85
2023-04-01T09:32:58.168Z,14.55
2023-04-01T09:35:48.961Z,11.10
2023-04-01T09:38:24.959Z,10.00
2023-04-01T09:41:16.703Z,11.70
2023-04-01T09:44:23.502Z,9.43
2023-04-01T09:47:12.683Z,11.02
2023-04-01T09:50:07.156Z,10.10
2023-04-01T09:53:13.480Z,12.38
2023-04-01T09:56:20.089Z,10.30
2023-04-01T09:59:07.648Z,5.95
2023-04-01T10:01:54.165Z,5.68
2023-04-01T10:05:04.243Z,9.10
2023-04-01T10:08:01.776Z,5.72
2023-04-01T10:10:52.187Z,4.80
2023-04-01T10:13:40.629Z,3.90
2023-04-01T10:16:30.819Z,5.47
2023-04-01T10:19:36.487Z,4.53
2023-04-01T10:22:24.494Z,4.47
2023-04-01T10:25:11.316Z,2.85
2023-04-01T10:28:10.381Z,4.28
2023-04-01T10:31:16.363Z,3.58
2023-04-01T10:33:51.697Z,3.67
2023-04-01T10:36:44.844Z,5.00
2023-04-01T10:39:31.555Z,4.30
2023-04-01T10:42:33.921Z,4.80
2023-04-01T10:45:43.175Z,3.45
2023-04-01T10:48:25.324Z,3.92
2023-04-01T10:51:17.793Z,4.07
2023-04-01T10:54:18.568Z,7.22
2023-04-01T10:57:28.107Z,5.45
2023-04-01T11:00:46.321Z,8.00
2023-04-01T11:04:04.945Z,8.73
2023-04-01T11:07:02.160Z,10.45
2023-04-01T11:09:37.943Z,10.43
2023-04-01T11:12:24.458Z,6.82
2023-04-01T11:15:17.005Z,6.22
2023-04-01T11:18:23.168Z,6.20
2023-04-01T11:21:29.274Z,4.43
2023-04-01T11:24:14.987Z,5.55
2023-04-01T11:27:21.362Z,4.30
2023-04-01T11:30:00.490Z,4.40
2023-04-01T11:32:44.333Z,3.40
2023-04-01T11:35:17.281Z,3.88
2023-04-01T11:37:57.615Z,3.63
2023-04-01T11:41:06.052Z,2.67
2023-04-01T11:44:25.212Z,2.90
2023-04-01T11:47:22.142Z,2.00
2023-04-01T11:50:29.036Z,1.65
2023-04-01T11:53:14.830Z,2.20
2023-04-01T11:55:45.585Z,2.25
2023-04-01T11:58:38.461Z,2.42
2023-04-01T12:01:40.708Z,3.30
2023-04-01T12:04:33.967Z,3.30
2023-04-01T12:07:27.266Z,6.30
2023-04-01T12:10:28.413Z,6.40
2023-04-01T12:13:06.114Z,3.22
2023-04-01T12:15:42.717Z,3.08
2023-04-01T12:18:30.207Z,2.95
2023-04-01T12:21:04.752Z,3.80
2023-04-01T12:23:44.430Z,4.00
2023-04-01T12:26:37.027Z,3.45
2023-04-01T12:29:22.664Z,3.65
2023-04-01T12:32:12.776Z,7.72
2023-04-01T12:34:46.493Z,4.35
2023-04-01T12:37:22.910Z,5.10
2023-04-01T12:40:29.797Z,4.75
2023-04-01T12:43:19.391Z,5.00
2023-04-01T12:46:05.992Z,7.50
2023-04-01T12:49:05.587Z,6.32
2023-04-01T12:52:10.638Z,4.55
2023-04-01T12:54:50.833Z,5.30
2023-04-01T12:57:27.582Z,4.55
2023-04-01T13:00:05.961Z,2.75
2023-04-01T13:02:55.620Z,2.03
2023-04-01T13:05:41.779Z,2.03
2023-04-01T13:08:18.401Z,2.45
2023-04-01T13:10:49.541Z,1.90
2023-04-01T13:13:39.889Z,2.17
2023-04-01T13:16:16.735Z,2.63
2023-04-01T13:18:53.220Z,4.03
2023-04-01T13:21:42.781Z,2.58
2023-04-01T13:24:32.152Z,3.30
2023-04-01T13:27:11.371Z,30.45
2023-04-01T13:29:58.029Z,4.97
2023-04-01T13:32:53.315Z,4.85
2023-04-01T13:35:39.736Z,7.40
2023-04-01T13:38:29.293Z,8.85
2023-04-01T13:41:29.454Z,7.00
2023-04-01T13:44:02.170Z,7.85
2023-04-01T13:46:39.883Z,8.30
2023-04-01T13:49:41.462Z,7.40
2023-04-01T13:52:26.480Z,6.53
2023-04-01T13:54:54.657Z,6.63
2023-04-01T13:57:40.937Z,5.57
2023-04-01T14:00:27.323Z,7.93
2023-04-01T14:03:16.644Z,6.95
2023-04-01T14:06:23.389Z,8.80
2023-04-01T14:09:04.024Z,8.02
2023-04-01T14:11:59.487Z,9.00
2023-04-01T14:15:05.007Z,6.70
2023-04-01T14:17:59.770Z,6.97
2023-04-01T14:20:34.552Z,6.70
2023-04-01T14:23:21.331Z,4.88
2023-04-01T14:26:20.376Z,5.35
2023-04-01T14:29:13.600Z,7.00
2023-04-01T14:31:50.128Z,8.73
2023-04-01T14:34:40.996Z,8.73
2023-04-01T14:37:46.304Z,10.07
2023-04-01T14:40:36.598Z,8.43
2023-04-01T14:43:07.506Z,9.15
2023-04-01T14:46:13.619Z,10.60
2023-04-01T14:49:04.115Z,9.07
2023-04-01T14:51:41.548Z,10.82
2023-04-01T14:54:11.711Z,10.40
2023-04-01T14:56:45.372Z,9.40
2023-04-01T14:59:28.519Z,9.05
2023-04-01T15:02:18.758Z,9.85
2023-04-01T15:05:13.125Z,8.20
2023-04-01T15:08:03.429Z,12.10
2023-04-01T15:10:49.326Z,11.52
2023-04-01T15:13:53.274Z,10.18
2023-04-01T15:19:32.515Z,8.75
2023-04-01T15:22:27.068Z,7.63
2023-04-01T15:25:33.241Z,7.68
2023-04-01T15:28:24.407Z,6.18
2023-04-01T15:31:17.901Z,7.85
2023-04-01T15:34:08.841Z,7.63
2023-04-01T15:37:02.135Z,5.80
2023-04-01T15:39:51.597Z,7.40
2023-04-01T15:42:23.023Z,7.50
2023-04-01T15:44:53.995Z,7.72
2023-04-01T15:47:28.130Z,7.65
2023-04-01T15:50:25.743Z,9.20
2023-04-01T15:52:56.706Z,7.35
2023-04-01T15:55:57.136Z,8.95
2023-04-01T15:58:34.209Z,6.80
2023-04-01T16:01:16.855Z,5.18
2023-04-01T16:03:53.672Z,4.65
2023-04-01T16:06:42.874Z,6.22
2023-04-01T16:09:29.407Z,7.60
2023-04-01T16:12:10.884Z,5.05
2023-04-01T16:14:51.352Z,5.88
2023-04-01T16:17:33.228Z,6.07
2023-04-01T16:20:13.916Z,6.05
2023-04-01T16:23:01.908Z,5.38
2023-04-01T16:25:53.757Z,6.00
2023-04-01T16:28:33.648Z,5.63
2023-04-01T16:31:10.759Z,5.50
2023-04-01T16:33:52.418Z,6.60
2023-04-01T16:36:23.391Z,7.55
2023-04-01T16:39:11.321Z,8.20
2023-04-01T16:41:48.848Z,21.02
2023-04-01T16:44:28.516Z,16.25
2023-04-01T16:47:22.051Z,12.25
2023-04-01T16:50:00.376Z,11.57
2023-04-01T16:53:00.960Z,11.80
2023-04-01T16:56:02.006Z,13.38
2023-04-01T16:59:08.043Z,16.40
2023-04-01T17:01:55.434Z,19.25
2023-04-01T17:04:34.904Z,14.18
2023-04-01T17:07:40.238Z,16.17
2023-04-01T17:11:06.753Z,14.32
2023-04-01T17:13:34.649Z,14.38
2023-04-01T17:16:12.158Z,16.02
2023-04-01T17:18:46.016Z,12.20
2023-04-01T17:21:26.141Z,14.60
2023-04-01T17:24:27.075Z,14.20
2023-04-01T17:27:19.872Z,13.20
2023-04-01T17:30:25.572Z,13.30
2023-04-01T17:33:17.049Z,14.90
2023-04-01T17:36:22.415Z,14.27
2023-04-01T17:39:28.435Z,13.77
2023-04-01T17:42:28.502Z,15.65
2023-04-01T17:45:13.412Z,13.80
2023-04-01T17:48:30.523Z,15.20
2023-04-01T17:51:25.991Z,16.05
2023-04-01T17:54:15.448Z,17.52
2023-04-01T17:56:55.979Z,17.17
2023-04-01T17:59:42.621Z,18.25
2023-04-01T18:02:15.034Z,21.10
2023-04-01T18:04:57.491Z,19.33
2023-04-01T18:07:51.718Z,19.10
2023-04-01T18:10:37.998Z,18.00
2023-04-01T18:13:18.531Z,16.13
2023-04-01T18:15:52.316Z,18.27
2023-04-01T18:18:32.792Z,23.05
2023-04-01T18:21:10.370Z,21.55
2023-04-01T18:23:39.018Z,19.17
2023-04-01T18:26:35.179Z,18.52
2023-04-01T18:29:13.440Z,20.52
2023-04-01T18:31:46.301Z,22.05
2023-04-01T18:34:52.861Z,19.90
2023-04-01T18:37:44.716Z,22.33
2023-04-01T18:40:30.195Z,19.85
2023-04-01T18:43:16.356Z,20.23
2023-04-01T18:45:56.633Z,17.13
2023-04-01T18:48:48.232Z,21.65
2023-04-01T18:51:58.311Z,14.65
2023-04-01T18:54:33.806Z,16.85
2023-04-01T18:57:21.214Z,22.17
2023-04-01T19:00:04.771Z,20.77
2023-04-01T19:02:52.589Z,20.20
2023-04-01T19:05:27.852Z,19.70
2023-04-01T19:07:57.833Z,17.90
2023-04-01T19:10:43.169Z,19.50
2023-04-01T19:13:20.596Z,17.75
2023-04-01T19:15:48.703Z,19.30
2023-04-01T19:18:38.422Z,17.65
2023-04-01T19:21:18.604Z,20.02
2023-04-01T19:24:12.542Z,22.15
2023-04-01T19:27:11.487Z,21.95
2023-04-01T19:29:47.205Z,17.90
2023-04-01T19:32:52.821Z,18.20
2023-04-01T19:35:29.515Z,17.85
2023-04-01T19:38:23.415Z,16.90
2023-04-01T19:40:59.809Z,17.05
2023-04-01T19:43:30.776Z,17.40
2023-04-01T19:46:20.938Z,16.33
2023-04-01T19:49:05.839Z,18.20
2023-04-01T19:51:53.854Z,19.65
2023-04-01T19:54:50.457Z,17.67
2023-04-01T19:57:37.410Z,16.10
2023-04-01T20:00:24.792Z,18.52
2023-04-01T20:03:12.124Z,18.77
2023-04-01T20:05:40.027Z,16.80
2023-04-01T20:08:27.544Z,16.95
2023-04-01T20:11:08.181Z,18.45
2023-04-01T20:13:41.671Z,17.90
2023-04-01T20:19:02.021Z,15.95
2023-04-01T20:21:48.346Z,17.33
2023-04-01T20:24:23.227Z,18.80
2023-04-01T20:26:56.285Z,15.35
2023-04-01T20:29:49.078Z,17.75
2023-04-01T20:32:50.585Z,19.42
2023-04-01T20:35:43.855Z,17.92
2023-04-01T20:38:30.437Z,18.60
2023-04-01T20:41:24.676Z,15.65
2023-04-01T20:44:14.776Z,15.80
2023-04-01T20:47:20.869Z,15.13
2023-04-01T20:50:00.678Z,16.17
2023-04-01T20:52:47.832Z,14.07
2023-04-01T20:55:42.560Z,16.38
2023-04-01T20:58:22.919Z,14.38
2023-04-01T21:01:09.239Z,14.45
2023-04-01T21:03:59.325Z,13.68
2023-04-01T21:06:49.897Z,14.88
2023-04-01T21:09:37.000Z,13.13
2023-04-01T21:12:29.343Z,13.15
2023-04-01T21:15:01.139Z,14.10
2023-04-01T21:17:52.154Z,11.15
2023-04-01T21:20:58.434Z,14.27
2023-04-01T21:23:34.982Z,14.07
2023-04-01T21:26:24.668Z,14.88
2023-04-01T21:29:08.273Z,17.00
2023-04-01T21:31:46.537Z,13.05
2023-04-01T21:34:32.916Z,13.13
2023-04-01T21:37:28.866Z,13.88
2023-04-01T21:40:34.037Z,12.50
2023-04-01T21:43:39.612Z,13.60
2023-04-01T21:46:40.449Z,12.07
2023-04-01T21:50:00.760Z,13.95
2023-04-01T21:53:10.860Z,13.45
2023-04-01T21:56:16.651Z,14.95
2023-04-01T21:59:10.562Z,10.95
2023-04-01T22:01:57.992Z,14.13
2023-04-01T22:04:26.858Z,17.55
2023-04-01T22:07:25.272Z,14.25
2023-04-01T22:10:07.139Z,13.48
2023-04-01T22:12:56.043Z,13.52
2023-04-01T22:15:56.746Z,11.10
2023-04-01T22:18:48.473Z,12.50
2023-04-01T22:21:35.060Z,13.00
2023-04-01T22:24:12.085Z,14.07
2023-04-01T22:26:47.261Z,12.45
2023-04-01T22:29:37.505Z,12.65
2023-04-01T22:32:40.223Z,12.85
2023-04-01T22:35:47.547Z,13.02
2023-04-01T22:38:30.414Z,13.88
2023-04-01T22:41:13.894Z,16.02
2023-04-01T22:46:33.512Z,12.25
2023-04-01T22:49:23.876Z,13.48
2023-04-01T22:52:03.162Z,11.25
2023-04-01T22:54:34.037Z,10.60
2023-04-01T22:57:14.402Z,15.48
2023-04-01T22:59:48.345Z,12.68
2023-04-01T23:02:19.899Z,17.02
2023-04-01T23:05:01.676Z,16.00
2023-04-01T23:07:50.010Z,12.63
2023-04-01T23:10:24.316Z,12.43
2023-04-01T23:12:53.961Z,12.30
2023-04-01T23:15:21.894Z,11.60
2023-04-01T23:18:18.034Z,13.25
2023-04-01T23:21:07.542Z,16.15
2023-04-01T23:24:06.729Z,12.98
2023-04-01T23:26:37.525Z,11.27
2023-04-01T23:29:07.137Z,9.88
2023-04-01T23:31:37.929Z,11.10
2023-04-01T23:34:24.837Z,17.20
2023-04-01T23:37:03.513Z,15.65
2023-04-01T23:39:37.948Z,16.52
2023-04-01T23:42:17.056Z,17.33
2023-04-01T23:44:45.579Z,16.02
2023-04-01T23:47:17.184Z,15.10
2023-04-01T23:49:50.859Z,14.85
2023-04-01T23:52:37.927Z,17.30
2023-04-01T23:55:11.870Z,18.15
2023-04-01T23:57:40.009Z,15.15
